首页
METAR-TAF:

METAR-TAF

机场 :

奥兰多桑福德国际机场

奥兰多, 佛罗里达州, 美国

纬度: 28-47N, 经度: 081-15W, 海拔: 17米

当前天气观测

该预报发布于25分钟前的22:28 UTC
风速8节,风向西南
温度 26°C
湿度 89%
气压 1018 hPa
能見度: 16.1公里
少量云层高于7500英尺
散云层高于10000英尺
多云层高于12000英尺
雷暴, 小雨

METAR: KSFB 152228Z 23008KT 10SM -TSRA FEW075 SCT100 BKN120 26/24 A3005 RMK AO2 LTG DSNT SW-N RAE04B22 TSB28 P0000 T02560244

时间: 18:53 (22:53 UTC)

预报

该预报发布于5小时和14分钟前的17:39 UTC
预报有效从15日的 18点(UTC)到 16日的 18点(UTC)
风速6节,风向
能見度: 10公里
散云层高于3500英尺
散云层高于25000英尺
从 15日的 2000点(UTC)
风速8节,风向南转南东
能見度: 10公里
散云层高于4000英尺, 积雨云.
多云层高于10000英尺
多云层高于25000英尺
附近有雷暴
短暂存在
从 15日的 20点(UTC)到 15日的 23点(UTC)
能見度: 4.8公里
多云层高于3500英尺, 积雨云.
雷暴, 雨
从 16日的 0000点(UTC)
风速6节,风向南转南东
能見度: 10公里
少量云层高于4000英尺
散云层高于12000英尺
多云层高于25000英尺
附近有阵雨
从 16日的 0200点(UTC)
风速3节,风向南转南东
能見度: 10公里
少量云层高于4000英尺
散云层高于25000英尺
从 16日的 1400点(UTC)
风速6节,风向南转西南
能見度: 10公里
少量云层高于3500英尺
散云层高于25000英尺

TAF: KSFB 151739Z 1518/1618 19006KT P6SM SCT035 SCT250 FM152000 15008KT P6SM VCTS SCT040CB BKN100 BKN250 TEMPO 1520/1523 3SM TSRA BKN035CB FM160000 15006KT P6SM VCSH FEW040 SCT120 BKN250 FM160200 16003KT P6SM FEW040 SCT250 FM161400 20006KT P6SM FEW035 SCT250

超过4000个机场的气象观测和天气预报(METAR&TAF报告)。

可查询的气象台以黄色和红色小点在地图上表示。

将鼠标移到小点上方,可查看气象台名称。

然后点击查看天气观测和预报。

如需切换地图:点击带黑十字的绿色按钮放大地图;点击带横线的绿色按钮缩小地图;或者点击绿色箭头查看邻近地区的地图。


METAR-TAF: